Terminal Aerodrome Forecast
Issued by NWS

Home | Current Version | Previous Version | Text Only | Print | Product List | Glossary On
Versions: 1 2 3 4 5 6 7 8 9 10 11 12 13 14
000
FTUS45 KABQ 280500
TAFROW
TAF
KROW 280535Z 2806/2906 20006KT P6SM SKC
     FM281100 VRB04KT P6SM SCT070
     FM282100 22008KT P6SM SCT070
     FM290200 25007KT P6SM FEW070=

USA.gov is the U.S. government's official web portal to all federal, state and local government web resources and services.